マヘ島 の空港の天気 - METARとTAF

セーシェル国際空港 ( FSIA / SEZ ) - セーシェル マヘ島
飛行場実況気象(Metar)
観測時間12/14 10:00 SCT (12/14 06:00 UTC)
風向・風速北北西 6m/s
視程10km以上
天気現象
少しの雲 雲底高度 610m
全天の8割程度の雲 雲底高度 670m
気温30℃
湿度70%
気圧1013hPa
METARFSIA 140600Z 33012KT 9999 FEW020CB BKN022 30/24 Q1013 NOSIG
過去の天気等 Google飛行場航空写真 Wunderground天気予報

過去48時間のMETAR

飛行場予報(TAF)
発表時間: 12/14 09:05 SCT (12/14 05:05 UTC)
予報対象時間: 14日10時 SCT ~ 15日10時 SCT
風向・風速北西 8m/s
視程10km以上
少しの積乱雲 雲底高度 610m
全天の8割程度の雲 雲底高度 670m
14日10時 SCT ~ 14日12時 SCT に一時的に
視程8000m
天気現象しゅう雨
14日13時 SCT ~ 14日16時 SCT に一時的に
風向・風速北西 8m/s 瞬間風速 14m/s
視程5000m
天気現象雷雨
少しの雲 雲底高度 270m
少しの積乱雲 雲底高度 460m
全天の8割程度の雲 雲底高度 550m
14日23時 SCT ~ 15日8時 SCT に一時的に
視程8000m
天気現象しゅう雨
TAF FSIA 140505Z 1406/1506 32015KT 9999 FEW020CB BKN022
TEMPO 1406/1408 8000 SHRA
TEMPO 1409/1412 31015G27KT 5000 TSRA FEW009 FEW015CB BKN018
TEMPO 1419/1504 8000 SHRA